Youngstown, OH (44501)

8:43 PM EDT on September 01, 2014 (GMT -0400)
West Side | Change Station
CLOSE
Current Station
Personal Weather Station
Location: Youngstown, OH
Elevation: 1010 ft
Nearby Weather Stations

Elev 1010 ft 41.09 °N, 80.70 °W | Updated 10 seconds ago

Partly Cloudy
Partly Cloudy
79.3 °F
Feels Like 81 °F
N
5.4
Wind Variable Wind from SE
Gusts 5.4 mph

Today
High -- | Low -- °F
--% Chance of Precip.
Yesterday
High -- | Low -- °F
Precip. -- in
6:49 AM 7:55 PM
Waxing Crescent, 45% visible
Pressure 29.88 in
Visibility 10.0 miles
Clouds Few 3300 ft
Scattered Clouds 12000 ft
Mostly Cloudy 25000 ft
Heat Index 81 °F
Dew Point 63 °F
Humidity 57%
Rainfall 0.00 in
Snow Depth Not available.
UV 0 out of 12
Pollen 9.10 out of 12
Ozone Good
PM2.5 Good
Flu Activity Not available.
METAR KYNG 012351Z 19009KT 10SM FEW033 SCT120 BKN250 26/20 A2990 RMK AO2 SLP116 T02560200 10283 20256 58004

More Conditions Fewer Conditions

Pressure 29.88 in
Visibility 10.0 miles
Clouds Few 3300 ft
Scattered Clouds 12000 ft
Mostly Cloudy 25000 ft
Heat Index 81 °F
Dew Point 63 °F
Humidity 57%
Rainfall 0.00 in
Snow Depth Not available.
UV 0 out of 12
Pollen 9.10 out of 12
Ozone Good
PM2.5 Good
Flu Activity Not available.
METAR KYNG 012351Z 19009KT 10SM FEW033 SCT120 BKN250 26/20 A2990 RMK AO2 SLP116 T02560200 10283 20256 58004

More Conditions Fewer Conditions

10-Day Weather Forecast

Almanac

Astronomy

Sep. 01, 2014 Rise Set
Actual Time 6:49 AM EDT 7:55 PM EDT
Civil Twilight 6:20 AM EDT 8:23 PM EDT
Nautical Twilight 5:47 AM EDT 8:57 PM EDT
Astronomical Twilight 5:11 AM EDT 9:32 PM EDT
Moon 1:37 PM EDT (9/1) 11:51 PM EDT (9/1)
Length of Visible Light 14h 02m
Length of Day
13h 06m
Tomorrow will be 2m 38s shorter.
Waxing Crescent, 45% of the Moon is Illuminated
Today
Waxing Crescent
Sep 2
First Quarter
Sep 8
Full
Sep 15
Last Quarter
Sep 24
New

Today's Extremes

State Highs State Lows

Community

WunderPhotos

Upload Photos

1,749,475 photos uploaded!

Nearby

Air Quality

  Air Quality AQ Index Pollutant
Yesterday Good
PM2.5
Yesterday Good
OZONE
Current Good
PM2.5
Current Good
OZONE
Monday Good
PM2.5
Monday Good
OZONE
Tuesday Good
OZONE
Tuesday Good
PM2.5
Wednesday Moderate
PM2.5
Wednesday Moderate
OZONE
Thursday Moderate
OZONE
Thursday Moderate
PM2.5
Friday Moderate
OZONE
Friday Moderate
PM2.5
Saturday Good
OZONE
Saturday Good
PM2.5

Snow Depth

Station Depth Elevation
No new snow has been reported.

Earthquake Activity

City Distance Mag. Time & Date
No recent earthquake activity has been reported nearby.
Minimum magnitude displayed is 2.5.

Coastal Water Temperatures

Place Temperature
No Stations Reporting

Nearby Weather Stations